Time;durP1;ratioP1;P1;durP2;ratioP2;P2;SDS_P1;SDS_P2;PMS_P1;PMS_P2;Temp;Humidity;BMP_temperature;BMP_pressure;BME280_temperature;BME280_humidity;BME280_pressure;Samples;Min_cycle;Max_cycle;Signal;HPM_P1;HPM_P2
2021/04/30 00:00:49;;;;;;;18.23;8.57;;;;;;;17.62;66.33;101043.06;143739;573;46018;-81
2021/04/30 00:03:17;;;;;;;18.62;9.23;;;;;;;17.69;64.77;101043.59;143736;681;46022;-82
2021/04/30 00:05:44;;;;;;;22.20;9.95;;;;;;;17.63;64.91;101052.72;143739;687;46018;-80
2021/04/30 00:08:14;;;;;;;23.05;10.50;;;;;;;17.63;64.70;101054.50;143738;581;47010;-82
2021/04/30 00:10:43;;;;;;;23.20;10.60;;;;;;;17.61;64.85;101057.25;143741;593;47012;-83
2021/04/30 00:13:11;;;;;;;18.90;9.77;;;;;;;17.61;64.91;101065.22;143736;707;46022;-81
2021/04/30 00:15:39;;;;;;;22.45;10.07;;;;;;;17.63;64.93;101071.28;143738;577;46019;-82
2021/04/30 00:18:07;;;;;;;21.73;9.30;;;;;;;17.64;64.71;101072.16;143735;576;47010;-81
2021/04/30 00:20:37;;;;;;;18.40;8.70;;;;;;;17.63;64.77;101071.28;143741;593;47012;-83
2021/04/30 00:23:11;;;;;;;19.75;9.18;;;;;;;17.55;65.43;101070.84;143737;636;46019;-79
2021/04/30 00:25:39;;;;;;;24.17;9.02;;;;;;;17.55;64.85;101073.50;143737;594;47010;-81
2021/04/30 00:28:06;;;;;;;18.73;8.18;;;;;;;17.39;64.70;101047.75;143742;570;46011;-80
2021/04/30 00:30:34;;;;;;;19.12;8.57;;;;;;;17.43;65.44;101065.22;143742;573;46010;-80
2021/04/30 00:33:02;;;;;;;21.75;8.43;;;;;;;17.39;65.07;101068.97;143740;563;46020;-80
2021/04/30 00:35:29;;;;;;;20.88;8.18;;;;;;;17.41;64.98;101077.72;143742;686;46010;-81
2021/04/30 00:37:59;;;;;;;19.62;8.55;;;;;;;17.42;64.94;101078.59;143737;792;46021;-80
2021/04/30 00:40:26;;;;;;;18.33;8.57;;;;;;;17.42;64.94;101087.38;143743;605;46010;-89
2021/04/30 00:42:56;;;;;;;24.00;8.88;;;;;;;17.47;64.73;101096.91;143741;599;46018;-88
2021/04/30 00:45:24;;;;;;;21.20;9.25;;;;;;;17.54;64.97;101093.03;143739;569;46018;-79
2021/04/30 00:47:53;;;;;;;22.27;10.38;;;;;;;17.51;64.56;101091.37;143738;601;46020;-76
2021/04/30 00:50:23;;;;;;;22.02;9.20;;;;;;;17.51;64.43;101098.47;143741;569;46016;-76
2021/04/30 00:52:51;;;;;;;19.95;8.48;;;;;;;17.43;64.65;101081.16;143739;672;46014;-75
2021/04/30 00:55:21;;;;;;;19.42;7.97;;;;;;;17.36;64.47;101085.06;143740;685;46010;-76
2021/04/30 00:58:00;;;;;;;19.05;8.45;;;;;;;17.27;64.42;101071.41;143740;622;47008;-76
2021/04/30 01:00:34;;;;;;;16.80;8.27;;;;;;;17.24;64.68;101075.06;143741;564;46019;-80
2021/04/30 01:03:02;;;;;;;17.12;8.07;;;;;;;17.21;64.47;101076.06;143740;722;46018;-80
2021/04/30 01:05:29;;;;;;;15.93;7.68;;;;;;;17.20;64.50;101066.38;143737;591;47010;-79
2021/04/30 01:07:56;;;;;;;19.42;7.87;;;;;;;17.19;64.37;101058.50;143738;619;46021;-79
2021/04/30 01:10:24;;;;;;;19.95;8.25;;;;;;;17.16;64.99;101064.81;143739;564;47008;-79
2021/04/30 01:12:51;;;;;;;16.65;7.65;;;;;;;17.23;64.36;101068.88;143737;600;47012;-84
2021/04/30 01:15:20;;;;;;;19.12;7.47;;;;;;;17.18;64.51;101084.19;143739;569;46018;-85
2021/04/30 01:17:48;;;;;;;20.55;7.80;;;;;;;17.11;64.15;101085.41;143742;681;45025;-84
2021/04/30 01:20:18;;;;;;;13.90;7.30;;;;;;;17.06;64.18;101093.63;143742;597;46020;-79
2021/04/30 01:22:54;;;;;;;18.08;7.62;;;;;;;17.00;64.24;101099.19;143740;587;46018;-80
2021/04/30 01:25:35;;;;;;;16.42;7.57;;;;;;;16.93;64.07;101097.78;143740;607;46018;-79
2021/04/30 01:28:03;;;;;;;18.17;7.45;;;;;;;16.79;64.55;101102.88;143737;566;47010;-85
2021/04/30 01:30:34;;;;;;;17.35;7.28;;;;;;;16.82;64.17;101100.09;143738;566;46021;-85
2021/04/30 01:33:03;;;;;;;18.70;7.18;;;;;;;16.76;64.29;101101.25;143737;579;46022;-83
2021/04/30 01:35:35;;;;;;;19.45;6.85;;;;;;;16.61;64.48;101102.81;143740;636;46010;-83
2021/04/30 01:38:04;;;;;;;20.55;7.82;;;;;;;16.61;64.38;101102.81;143739;694;46021;-83
2021/04/30 01:40:35;;;;;;;17.37;7.07;;;;;;;16.64;64.39;101107.97;143742;733;46010;-80
2021/04/30 01:43:15;;;;;;;16.62;7.50;;;;;;;16.61;64.43;101107.25;143738;591;46018;-81
2021/04/30 01:45:55;;;;;;;15.02;7.03;;;;;;;16.62;64.65;101109.84;143741;619;46018;-80
2021/04/30 01:48:27;;;;;;;16.48;7.25;;;;;;;16.54;64.76;101118.16;143739;564;46020;-84
2021/04/30 01:50:56;;;;;;;15.13;7.20;;;;;;;16.61;64.53;101117.84;143741;564;46018;-81
2021/04/30 01:53:27;;;;;;;17.45;8.27;;;;;;;16.49;64.66;101116.66;143737;564;47023;-82
2021/04/30 01:55:57;;;;;;;16.20;7.55;;;;;;;16.46;64.99;101125.59;143739;660;46012;-82
2021/04/30 01:58:25;;;;;;;18.55;7.50;;;;;;;16.44;64.94;101126.59;143739;564;46021;-91
2021/04/30 02:00:55;;;;;;;17.02;7.68;;;;;;;16.28;64.92;101100.81;143742;588;46018;-91
2021/04/30 02:03:24;;;;;;;17.87;8.20;;;;;;;16.27;65.44;101104.37;143739;643;47022;-93
2021/04/30 02:08:27;;;;;;;16.62;7.70;;;;;;;16.72;64.70;101115.56;143744;587;46020;-84
2021/04/30 02:10:54;;;;;;;15.48;8.18;;;;;;;16.70;64.35;101120.06;143741;563;46018;-83
2021/04/30 02:13:22;;;;;;;18.25;8.20;;;;;;;16.66;64.46;101113.19;143740;587;46022;-83
2021/04/30 02:15:53;;;;;;;17.10;8.38;;;;;;;16.61;64.48;101105.47;143740;571;47010;-84
2021/04/30 02:18:20;;;;;;;22.23;8.50;;;;;;;16.57;64.58;101101.25;143737;614;46020;-86
2021/04/30 02:20:48;;;;;;;16.98;8.32;;;;;;;16.49;64.77;101091.00;143742;573;47012;-85
2021/04/30 02:23:15;;;;;;;15.77;8.02;;;;;;;16.49;64.94;101090.16;143736;622;47012;-85
2021/04/30 02:25:42;;;;;;;29.17;7.87;;;;;;;16.45;64.77;101102.66;143741;703;46018;-85
2021/04/30 02:28:10;;;;;;;17.25;7.85;;;;;;;16.45;64.89;101109.78;143740;572;46020;-88
2021/04/30 02:30:39;;;;;;;16.83;7.50;;;;;;;16.49;64.80;101109.53;143743;628;46010;-85
2021/04/30 02:33:07;;;;;;;19.98;8.40;;;;;;;16.44;64.80;101122.16;143739;648;47012;-84
2021/04/30 02:35:41;;;;;;;17.75;8.10;;;;;;;16.44;64.88;101118.66;143741;607;46012;-85
2021/04/30 02:38:10;;;;;;;19.35;8.20;;;;;;;16.35;64.87;101128.75;143742;630;46010;-82
2021/04/30 02:40:40;;;;;;;19.77;6.78;;;;;;;16.37;64.86;101126.88;143742;621;47012;-83
2021/04/30 02:43:14;;;;;;;18.30;7.60;;;;;;;16.17;65.81;101130.44;143737;581;47020;-86
2021/04/30 02:45:43;;;;;;;15.52;6.90;;;;;;;16.29;65.03;101126.34;143747;656;45012;-88
2021/04/30 02:48:13;;;;;;;16.58;7.07;;;;;;;16.35;64.75;101123.44;143744;692;45020;-81
2021/04/30 02:50:42;;;;;;;17.23;7.50;;;;;;;16.31;64.79;101134.25;143743;577;46018;-81
2021/04/30 02:53:09;;;;;;;16.65;6.62;;;;;;;16.27;65.14;101125.56;143739;584;47012;-81
2021/04/30 02:55:36;;;;;;;15.27;6.95;;;;;;;16.26;65.13;101118.56;143740;571;46018;-83
2021/04/30 02:58:04;;;;;;;21.23;7.22;;;;;;;16.20;65.20;101116.19;143741;579;46010;-81
2021/04/30 03:00:31;;;;;;;17.67;7.43;;;;;;;16.24;65.25;101115.97;143743;597;47012;-78
2021/04/30 03:03:00;;;;;;;17.60;7.15;;;;;;;16.25;65.04;101114.19;143738;649;46909;-79
2021/04/30 03:05:27;;;;;;;15.75;7.70;;;;;;;16.20;65.39;101116.19;143742;704;46019;-79
2021/04/30 03:07:54;;;;;;;18.45;6.70;;;;;;;16.25;65.16;101114.19;143740;563;46020;-81
2021/04/30 03:10:21;;;;;;;17.95;6.87;;;;;;;16.20;65.25;101117.03;143740;588;47010;-82
2021/04/30 03:12:55;;;;;;;18.17;6.90;;;;;;;16.14;65.36;101117.31;143742;620;46012;-92
2021/04/30 03:15:23;;;;;;;14.77;7.10;;;;;;;16.11;65.58;101124.56;143743;636;46010;-87
2021/04/30 03:17:50;;;;;;;16.58;6.82;;;;;;;16.20;65.25;101124.16;143740;598;47008;-88
2021/04/30 03:20:18;;;;;;;16.60;7.45;;;;;;;16.14;65.26;101129.69;143739;572;47010;-88
2021/04/30 03:22:46;;;;;;;18.25;7.65;;;;;;;16.10;65.47;101134.25;143737;597;47021;-86
2021/04/30 03:25:16;;;;;;;17.02;7.37;;;;;;;16.08;65.46;101134.34;143741;615;46010;-87
2021/04/30 03:27:45;;;;;;;19.17;7.37;;;;;;;16.13;65.47;101138.56;143736;564;49023;-93
2021/04/30 03:30:14;;;;;;;18.60;7.20;;;;;;;16.05;65.54;101147.72;143742;575;47010;-80
2021/04/30 03:32:41;;;;;;;23.83;7.40;;;;;;;15.97;66.80;101154.31;143738;668;47020;-81
2021/04/30 03:35:15;;;;;;;23.73;7.32;;;;;;;16.06;65.86;101156.53;143742;565;46019;-76
2021/04/30 03:37:42;;;;;;;;;;;;;;;16.06;65.47;101160.06;143749;980;46010;-76
2021/04/30 03:40:10;;;;;;;19.40;7.68;;;;;;;16.05;65.50;101160.97;143755;579;46010;-77
2021/04/30 03:42:37;;;;;;;18.52;6.40;;;;;;;16.07;65.38;101171.50;143740;722;46907;-77
2021/04/30 03:45:12;;;;;;;16.30;6.60;;;;;;;16.07;65.28;101172.37;143741;569;46008;-80
2021/04/30 03:47:39;;;;;;;17.60;6.78;;;;;;;16.05;65.32;101176.84;143739;629;46020;-80
2021/04/30 03:50:06;;;;;;;18.42;6.72;;;;;;;16.11;65.43;101177.53;143742;564;47008;-80
2021/04/30 03:52:34;;;;;;;17.30;6.80;;;;;;;16.12;65.33;101184.56;143743;576;46898;-79
2021/04/30 03:55:01;;;;;;;17.08;6.43;;;;;;;16.07;65.28;101177.66;143735;620;46018;-78
2021/04/30 03:57:28;;;;;;;17.65;6.70;;;;;;;16.13;65.15;101186.25;143739;574;46021;-76
2021/04/30 03:59:55;;;;;;;13.82;5.97;;;;;;;16.08;65.31;101179.37;143742;649;46026;-78
2021/04/30 04:02:22;;;;;;;21.80;6.72;;;;;;;16.01;65.77;101183.22;143738;577;46018;-81
2021/04/30 04:04:49;;;;;;;17.80;7.07;;;;;;;16.06;65.35;101181.25;143742;662;46008;-81
2021/04/30 04:07:16;;;;;;;22.25;6.68;;;;;;;16.07;65.26;101185.63;143740;564;47008;-82
2021/04/30 04:09:43;;;;;;;16.70;6.37;;;;;;;16.11;65.57;101188.97;143741;576;46018;-78
2021/04/30 04:12:11;;;;;;;17.05;6.40;;;;;;;16.14;65.27;101187.97;143740;580;46011;-76
2021/04/30 04:14:38;;;;;;;20.08;6.40;;;;;;;16.23;65.00;101185.78;143742;623;46008;-82
2021/04/30 04:17:05;;;;;;;20.12;6.68;;;;;;;16.25;65.28;101191.00;143736;643;47008;-84
2021/04/30 04:19:32;;;;;;;19.00;6.65;;;;;;;16.30;65.27;101199.63;143742;573;47010;-85
2021/04/30 04:21:59;;;;;;;18.10;7.05;;;;;;;16.32;65.29;101202.19;143737;677;47023;-85
2021/04/30 04:24:26;;;;;;;17.23;6.18;;;;;;;16.38;65.25;101200.16;143742;577;46008;-84
2021/04/30 04:26:53;;;;;;;17.08;5.95;;;;;;;16.40;65.25;101198.31;143740;616;46020;-84
2021/04/30 04:29:20;;;;;;;16.45;6.78;;;;;;;16.48;65.31;101207.69;143742;693;46027;-79
2021/04/30 04:31:47;;;;;;;22.20;7.72;;;;;;;16.52;65.39;101206.63;143739;605;46907;-76
2021/04/30 04:34:14;;;;;;;23.92;7.18;;;;;;;16.58;65.48;101209.84;143738;577;46913;-77
2021/04/30 04:36:41;;;;;;;20.02;7.28;;;;;;;16.63;65.40;101214.94;143736;714;47008;-76
2021/04/30 04:39:09;;;;;;;19.33;7.43;;;;;;;16.77;65.59;101213.44;143740;647;47006;-77
2021/04/30 04:41:36;;;;;;;16.77;7.53;;;;;;;16.88;65.50;101214.69;143740;608;46022;-77
2021/04/30 04:44:04;;;;;;;20.08;7.95;;;;;;;17.03;65.46;101205.19;143740;570;46022;-78
2021/04/30 04:46:31;;;;;;;22.60;8.75;;;;;;;17.16;65.60;101204.59;143736;569;47008;-77
2021/04/30 04:48:58;;;;;;;28.98;9.05;;;;;;;17.29;65.46;101200.44;143740;585;46018;-81
2021/04/30 04:51:25;;;;;;;23.25;9.13;;;;;;;17.53;65.38;101197.50;143741;591;45023;-84
2021/04/30 04:53:52;;;;;;;22.02;8.77;;;;;;;17.64;65.63;101199.63;143741;701;46008;-83
2021/04/30 04:56:25;;;;;;;20.30;9.32;;;;;;;17.71;65.56;101199.22;143742;660;46008;-81
2021/04/30 04:58:55;;;;;;;27.25;10.02;;;;;;;17.87;65.44;101190.50;143745;693;46008;-82
2021/04/30 05:01:22;;;;;;;22.20;8.55;;;;;;;17.92;65.62;101194.66;143740;566;46018;-81
2021/04/30 05:03:50;;;;;;;24.25;9.70;;;;;;;18.04;65.53;101185.22;143740;568;47008;-87
2021/04/30 05:06:17;;;;;;;24.85;9.73;;;;;;;18.17;65.36;101192.53;143739;727;47008;-88
2021/04/30 05:08:44;;;;;;;23.83;9.63;;;;;;;18.23;65.36;101193.09;143740;690;47006;-85
2021/04/30 05:11:11;;;;;;;19.62;8.95;;;;;;;18.36;65.45;101189.78;143738;611;47010;-88
2021/04/30 05:13:39;;;;;;;24.90;10.05;;;;;;;18.50;65.34;101184.56;143741;583;46008;-85
2021/04/30 05:23:56;;;;;;;19.90;10.10;;;;;;;19.56;63.30;101195.56;143739;589;46018;-82
2021/04/30 05:26:23;;;;;;;;;;;;;;;19.59;63.78;101187.41;143743;979;46010;-93
2021/04/30 05:28:50;;;;;;;25.88;9.45;;;;;;;19.60;63.70;101187.34;143748;622;46019;-84
2021/04/30 05:31:18;;;;;;;21.80;9.85;;;;;;;19.62;63.66;101193.41;143740;569;46022;-94
2021/04/30 05:33:45;;;;;;;25.60;10.02;;;;;;;19.67;64.00;101187.84;143737;576;47013;-91
2021/04/30 05:36:12;;;;;;;22.65;9.30;;;;;;;19.69;63.15;101196.56;143741;585;46020;-85
2021/04/30 05:38:40;;;;;;;23.83;9.70;;;;;;;19.72;64.15;101191.06;143742;589;46018;-87
2021/04/30 05:41:07;;;;;;;23.00;9.75;;;;;;;19.78;63.21;101192.53;143739;635;46019;-79
2021/04/30 05:43:34;;;;;;;24.15;10.05;;;;;;;19.85;63.47;101196.56;143742;587;46010;-79
2021/04/30 05:46:01;;;;;;;21.95;9.20;;;;;;;19.84;63.28;101200.16;143740;585;47010;-79
2021/04/30 05:48:29;;;;;;;23.52;9.25;;;;;;;19.81;63.61;101211.03;143742;650;46018;-81
2021/04/30 05:50:56;;;;;;;23.52;9.18;;;;;;;19.79;62.93;101205.75;143740;653;46023;-82
2021/04/30 05:53:23;;;;;;;20.70;8.93;;;;;;;19.84;63.27;101202.84;143741;585;46018;-84
2021/04/30 05:55:50;;;;;;;25.20;9.73;;;;;;;19.96;63.97;101209.25;143739;581;47010;-82
2021/04/30 05:58:17;;;;;;;19.67;9.13;;;;;;;19.98;63.28;101196.69;143742;604;46010;-84
2021/04/30 06:00:45;;;;;;;23.20;9.60;;;;;;;20.12;63.34;101202.06;143738;604;47020;-78
2021/04/30 06:03:12;;;;;;;26.25;8.85;;;;;;;20.32;63.76;101204.44;143741;580;46915;-76
2021/04/30 06:05:39;;;;;;;22.20;8.48;;;;;;;20.36;62.62;101196.16;143741;612;46021;-75
2021/04/30 06:08:06;;;;;;;21.77;8.98;;;;;;;20.51;62.20;101201.50;143742;632;47012;-76
2021/04/30 06:10:33;;;;;;;20.73;9.65;;;;;;;20.65;62.98;101196.16;143741;563;46012;-75
2021/04/30 06:13:05;;;;;;;18.85;8.40;;;;;;;20.65;62.53;101206.81;143740;591;46019;-75
2021/04/30 06:15:33;;;;;;;19.67;9.07;;;;;;;20.66;62.39;101202.38;143739;598;47010;-79
2021/04/30 06:18:00;;;;;;;19.17;8.13;;;;;;;20.70;62.87;101194.09;143739;583;46020;-84
2021/04/30 06:20:27;;;;;;;21.73;8.07;;;;;;;20.87;62.02;101197.50;143741;569;46023;-83
2021/04/30 06:22:54;;;;;;;16.37;8.60;;;;;;;20.96;62.22;101199.59;143741;591;46010;-86
2021/04/30 06:25:22;;;;;;;18.65;8.38;;;;;;;21.07;63.05;101186.41;143741;578;46011;-77
2021/04/30 06:27:49;;;;;;;19.75;9.32;;;;;;;21.08;60.85;101188.12;143741;611;47013;-77
2021/04/30 06:30:16;;;;;;;23.62;10.20;;;;;;;21.15;60.66;101187.72;143740;708;46018;-85
2021/04/30 06:32:44;;;;;;;20.35;9.18;;;;;;;21.16;61.66;101184.09;143740;577;46019;-84
2021/04/30 06:35:12;;;;;;;20.10;8.13;;;;;;;21.15;60.73;101182.37;143741;569;46013;-84
2021/04/30 06:37:39;;;;;;;20.27;9.10;;;;;;;21.37;62.24;101181.84;143742;574;46016;-82
2021/04/30 06:40:08;;;;;;;22.83;8.65;;;;;;;21.34;61.00;101188.22;143742;662;46012;-82
2021/04/30 06:42:36;;;;;;;22.77;9.25;;;;;;;21.35;60.72;101184.59;143741;742;46011;-82
2021/04/30 06:45:04;;;;;;;21.35;9.07;;;;;;;21.01;60.24;101186.81;143740;582;46010;-81
2021/04/30 06:47:31;;;;;;;17.85;8.70;;;;;;;21.17;61.67;101185.81;143742;589;47012;-82
2021/04/30 06:49:58;;;;;;;24.73;9.05;;;;;;;21.22;61.39;101183.69;143738;570;46013;-78
2021/04/30 06:52:25;;;;;;;19.85;8.77;;;;;;;21.18;61.51;101182.19;143740;634;46010;-79
2021/04/30 06:54:52;;;;;;;15.85;7.85;;;;;;;21.24;61.33;101190.66;143737;604;46010;-82
2021/04/30 06:57:20;;;;;;;24.33;8.30;;;;;;;21.33;61.40;101185.66;143739;612;47012;-80
2021/04/30 06:59:47;;;;;;;19.85;8.85;;;;;;;21.11;60.48;101192.41;143738;612;46022;-87
2021/04/30 07:02:14;;;;;;;18.55;8.98;;;;;;;21.18;60.63;101182.19;143739;598;46018;-79
2021/04/30 07:04:41;;;;;;;19.65;8.07;;;;;;;21.30;61.38;101178.72;143737;621;48008;-87
2021/04/30 07:07:08;;;;;;;22.90;8.25;;;;;;;21.43;61.40;101182.28;143740;569;47012;-81
2021/04/30 07:09:35;;;;;;;16.60;7.70;;;;;;;21.50;60.42;101176.53;143739;570;45911;-85
2021/04/30 07:12:03;;;;;;;16.98;7.53;;;;;;;21.66;60.87;101179.91;143740;589;45018;-86
2021/04/30 07:14:30;;;;;;;15.85;7.68;;;;;;;21.79;60.96;101167.44;143739;581;46010;-87
2021/04/30 07:16:57;;;;;;;17.98;7.70;;;;;;;21.83;58.37;101169.88;143740;566;46010;-77
2021/04/30 07:19:24;;;;;;;19.75;8.57;;;;;;;21.84;58.71;101177.78;143739;608;46014;-91
2021/04/30 07:21:51;;;;;;;25.20;9.05;;;;;;;21.88;59.11;101181.12;143740;605;46010;-88
2021/04/30 07:24:18;;;;;;;20.48;7.78;;;;;;;21.88;58.52;101183.78;143740;585;47012;-81
2021/04/30 07:26:45;;;;;;;19.10;8.23;;;;;;;21.77;59.16;101182.72;143740;608;47012;-81
2021/04/30 07:29:12;;;;;;;17.77;7.80;;;;;;;21.64;58.49;101184.50;143737;569;46021;-83
2021/04/30 07:31:39;;;;;;;20.90;8.18;;;;;;;21.88;58.95;101187.31;143739;596;46012;-82
2021/04/30 07:34:07;;;;;;;21.17;8.38;;;;;;;22.23;57.56;101189.37;143739;572;46021;-81
2021/04/30 07:36:34;;;;;;;21.65;7.78;;;;;;;22.45;56.95;101188.75;143741;610;46018;-80
2021/04/30 07:39:01;;;;;;;21.10;9.77;;;;;;;22.46;56.37;101187.78;143735;571;47020;-80
2021/04/30 07:41:29;;;;;;;29.02;11.57;;;;;;;22.49;56.93;101192.06;143738;610;47010;-82
2021/04/30 07:43:56;;;;;;;28.42;11.15;;;;;;;22.57;56.82;101191.53;143738;615;46020;-81
2021/04/30 07:46:23;;;;;;;27.67;10.82;;;;;;;22.77;56.99;101190.09;143739;609;47012;-84
2021/04/30 07:49:02;;;;;;;21.50;9.40;;;;;;;22.80;57.02;101187.22;143737;607;46012;-83
2021/04/30 07:51:29;;;;;;;22.25;9.20;;;;;;;22.93;56.33;101184.50;143739;637;46012;-83
2021/04/30 07:53:56;;;;;;;19.33;8.82;;;;;;;23.03;56.64;101184.66;143738;642;46020;-82
2021/04/30 07:56:23;;;;;;;22.52;10.38;;;;;;;23.39;55.82;101188.28;143739;581;47012;-82
2021/04/30 07:58:51;;;;;;;22.10;9.60;;;;;;;23.27;55.37;101190.09;143738;667;46023;-77
2021/04/30 08:01:18;;;;;;;24.23;9.68;;;;;;;23.33;55.19;101192.28;143733;612;46010;-81
2021/04/30 08:03:46;;;;;;;20.85;10.02;;;;;;;23.35;55.35;101176.09;143735;644;46020;-82
2021/04/30 08:06:13;;;;;;;22.00;9.45;;;;;;;23.34;55.71;101180.59;143739;612;46018;-80
2021/04/30 08:08:40;;;;;;;22.40;8.90;;;;;;;23.58;55.08;101175.22;143736;587;47012;-82
2021/04/30 08:11:10;;;;;;;24.75;9.40;;;;;;;23.57;55.69;101172.69;143738;574;46025;-81
2021/04/30 08:13:37;;;;;;;27.08;9.70;;;;;;;23.96;53.46;101174.16;143737;582;46029;-82
2021/04/30 08:16:09;;;;;;;24.00;9.60;;;;;;;23.89;53.95;101172.91;143735;641;47018;-83
2021/04/30 08:18:36;;;;;;;23.80;9.25;;;;;;;23.92;54.67;101175.38;143736;586;46019;-82
2021/04/30 08:21:04;;;;;;;21.37;8.07;;;;;;;23.94;54.60;101181.44;143739;587;46010;-83
2021/04/30 08:23:31;;;;;;;16.60;7.55;;;;;;;23.89;53.49;101177.41;143739;585;46010;-85
2021/04/30 08:25:58;;;;;;;19.77;7.28;;;;;;;23.99;53.10;101189.16;143739;596;47012;-82
2021/04/30 08:28:29;;;;;;;18.77;7.87;;;;;;;23.97;53.54;101191.09;143737;565;46910;-83
2021/04/30 08:30:56;;;;;;;19.45;7.00;;;;;;;23.77;52.28;101189.91;143740;580;46008;-84
2021/04/30 08:33:26;;;;;;;19.00;7.80;;;;;;;23.62;52.81;101191.91;143737;572;47011;-84
2021/04/30 08:35:54;;;;;;;18.02;7.03;;;;;;;23.76;54.27;101196.25;143739;613;46018;-85
2021/04/30 08:38:21;;;;;;;19.23;7.25;;;;;;;23.90;53.46;101195.22;143736;689;48020;-84
2021/04/30 08:40:48;;;;;;;19.92;8.10;;;;;;;23.98;54.00;101198.16;143738;563;46010;-84
2021/04/30 08:43:19;;;;;;;16.35;7.57;;;;;;;24.15;53.41;101195.03;143737;601;46010;-82
2021/04/30 08:45:46;;;;;;;16.92;6.68;;;;;;;24.13;52.67;101201.50;143742;588;45045;-82
2021/04/30 08:48:15;;;;;;;18.12;7.68;;;;;;;24.10;52.97;101186.50;143737;574;46911;-82
2021/04/30 08:50:44;;;;;;;18.70;6.90;;;;;;;24.16;51.65;101196.72;143738;676;46915;-84
2021/04/30 08:53:11;;;;;;;17.30;7.12;;;;;;;24.27;52.70;101181.63;143735;581;46020;-84
2021/04/30 08:55:39;;;;;;;19.00;7.30;;;;;;;24.35;51.12;101184.56;143737;570;46030;-84
2021/04/30 08:58:08;;;;;;;15.45;7.32;;;;;;;24.38;52.02;101173.56;143735;584;47017;-84
2021/04/30 09:00:35;;;;;;;19.05;6.68;;;;;;;24.43;51.18;101181.28;143739;577;46012;-84
2021/04/30 09:03:04;;;;;;;19.60;7.00;;;;;;;24.52;52.38;101180.53;143737;580;46021;-84
2021/04/30 09:05:32;;;;;;;13.80;6.20;;;;;;;24.69;51.67;101189.09;143740;579;46010;-75
2021/04/30 09:08:01;;;;;;;13.82;6.45;;;;;;;24.52;51.07;101159.06;143734;569;47020;-77
2021/04/30 09:10:37;;;;;;;19.35;6.93;;;;;;;24.64;51.46;101176.88;143739;589;46012;-74
2021/04/30 09:13:12;;;;;;;17.17;6.47;;;;;;;24.56;51.78;101176.63;143738;591;46010;-76
2021/04/30 09:15:43;;;;;;;17.45;6.85;;;;;;;24.59;52.16;101154.03;143742;569;46010;-76
2021/04/30 09:18:28;;;;;;;16.05;6.55;;;;;;;24.74;50.66;101150.19;143738;593;45023;-76
2021/04/30 09:21:09;;;;;;;19.17;7.50;;;;;;;24.99;51.93;101166.97;143741;592;46010;-76
2021/04/30 09:23:47;;;;;;;17.87;7.25;;;;;;;25.16;50.27;101162.87;143737;595;46021;-77
2021/04/30 09:26:33;;;;;;;13.95;6.12;;;;;;;25.54;51.54;101155.31;143738;585;47008;-74
2021/04/30 09:29:09;;;;;;;18.12;6.32;;;;;;;25.45;50.58;101141.66;143738;619;46012;-75
2021/04/30 09:31:44;;;;;;;14.80;7.00;;;;;;;25.85;50.75;101140.94;143739;612;46018;-81
2021/04/30 09:34:35;;;;;;;15.48;6.32;;;;;;;25.80;45.93;101155.78;143739;634;46018;-80
2021/04/30 09:37:17;;;;;;;14.52;6.35;;;;;;;25.99;49.48;101144.28;143739;620;46018;-81
2021/04/30 09:39:59;;;;;;;17.10;6.45;;;;;;;26.29;48.71;101154.22;143737;773;46019;-81
2021/04/30 09:42:31;;;;;;;15.00;6.35;;;;;;;26.64;45.87;101160.16;143739;586;46010;-83
2021/04/30 09:45:06;;;;;;;13.52;6.07;;;;;;;26.46;44.66;101155.44;143732;705;47010;-73
2021/04/30 09:47:38;;;;;;;21.50;7.18;;;;;;;26.49;43.21;101141.72;143739;626;47008;-82
2021/04/30 09:50:22;;;;;;;16.95;6.95;;;;;;;26.77;42.81;101157.25;143738;566;46028;-81
2021/04/30 09:53:00;;;;;;;16.75;6.40;;;;;;;26.69;42.63;101153.38;143739;585;46018;-80
2021/04/30 09:55:51;;;;;;;18.85;6.22;;;;;;;26.53;43.48;101153.03;143739;611;46018;-74
2021/04/30 09:58:24;;;;;;;19.05;6.90;;;;;;;26.41;43.65;101149.63;143742;636;46012;-75
2021/04/30 10:00:56;;;;;;;20.73;6.55;;;;;;;26.59;42.38;101148.97;143737;671;46035;-73
2021/04/30 10:03:34;;;;;;;13.57;6.28;;;;;;;26.34;42.66;101143.03;143738;567;46010;-74
2021/04/30 10:06:19;;;;;;;17.15;6.65;;;;;;;26.25;43.55;101146.56;143737;638;46029;-79
2021/04/30 10:09:09;;;;;;;15.95;5.53;;;;;;;26.52;42.52;101146.81;143737;613;47018;-81
2021/04/30 10:11:36;;;;;;;14.63;6.75;;;;;;;26.52;41.78;101137.88;143736;595;46012;-75
2021/04/30 10:14:04;;;;;;;14.70;5.68;;;;;;;26.50;42.20;101138.03;143738;624;46018;-75
2021/04/30 10:16:31;;;;;;;17.27;5.55;;;;;;;26.34;42.40;101130.47;143738;570;45022;-74
2021/04/30 10:18:58;;;;;;;14.68;5.37;;;;;;;26.57;41.43;101127.53;143739;581;48012;-74
2021/04/30 10:21:26;;;;;;;11.70;5.10;;;;;;;26.53;40.38;101126.09;143737;605;46022;-74
2021/04/30 10:23:53;;;;;;;13.48;5.25;;;;;;;26.26;41.96;101130.28;143737;614;47013;-75
2021/04/30 10:26:21;;;;;;;16.85;5.37;;;;;;;26.30;42.00;101122.78;143737;800;47010;-76
2021/04/30 10:28:53;;;;;;;16.73;5.30;;;;;;;26.50;42.07;101111.09;143738;620;47008;-76
2021/04/30 10:31:33;;;;;;;16.67;5.55;;;;;;;26.49;41.92;101109.41;143737;591;46015;-76
2021/04/30 10:34:18;;;;;;;19.65;5.47;;;;;;;26.45;42.68;101102.59;143737;609;46010;-76
2021/04/30 10:36:54;;;;;;;14.70;5.65;;;;;;;26.54;42.22;101100.91;143738;657;46020;-76
2021/04/30 10:39:32;;;;;;;17.52;6.03;;;;;;;26.85;42.55;101096.31;143739;609;47018;-74
2021/04/30 10:42:10;;;;;;;18.90;6.45;;;;;;;26.78;41.57;101056.63;143738;595;46023;-75
2021/04/30 10:44:44;;;;;;;17.45;5.87;;;;;;;27.34;40.40;101084.69;143739;750;46018;-75
2021/04/30 10:47:29;;;;;;;14.82;5.70;;;;;;;27.25;39.75;101088.25;143739;617;46012;-76
2021/04/30 10:50:19;;;;;;;12.93;5.65;;;;;;;27.13;40.89;101050.69;143739;630;46018;-74
2021/04/30 10:52:47;;;;;;;18.27;5.82;;;;;;;26.98;38.55;101074.50;143737;585;46012;-76
2021/04/30 10:55:18;;;;;;;14.38;5.07;;;;;;;27.18;41.68;101067.25;143739;569;46009;-76
2021/04/30 10:58:00;;;;;;;16.80;5.15;;;;;;;27.26;40.45;101074.63;143737;853;46010;-75
2021/04/30 11:00:41;;;;;;;12.68;4.53;;;;;;;27.13;40.82;101072.22;143738;602;46018;-76
2021/04/30 11:03:20;;;;;;;13.90;4.70;;;;;;;27.03;41.52;101068.69;143736;569;47023;-76
2021/04/30 11:06:05;;;;;;;13.13;4.53;;;;;;;26.99;41.51;101064.56;143741;637;46010;-76
2021/04/30 11:08:55;;;;;;;18.77;5.00;;;;;;;26.80;41.91;101031.22;143737;587;46011;-76
2021/04/30 11:11:44;;;;;;;14.35;4.87;;;;;;;27.07;40.72;101058.47;143742;682;46010;-76
2021/04/30 11:14:37;;;;;;;15.82;4.22;;;;;;;27.02;41.05;101057.06;143738;574;46018;-77
2021/04/30 11:17:05;;;;;;;12.82;4.35;;;;;;;26.96;38.47;101062.16;143740;602;46010;-78
2021/04/30 11:19:44;;;;;;;14.82;4.78;;;;;;;27.13;39.72;101058.75;143738;733;46010;-77
2021/04/30 11:22:15;;;;;;;12.63;4.30;;;;;;;27.52;39.68;101047.09;143739;771;46018;-75
2021/04/30 11:24:51;;;;;;;14.75;4.15;;;;;;;27.79;38.28;101051.69;143740;578;46022;-76
2021/04/30 11:27:38;;;;;;;16.25;4.30;;;;;;;28.02;36.88;101032.44;143740;601;46010;-75
2021/04/30 11:30:22;;;;;;;16.23;4.15;;;;;;;28.15;36.35;101038.34;143737;660;46020;-76
2021/04/30 11:32:56;;;;;;;13.88;3.92;;;;;;;27.75;36.83;101025.16;143740;595;46010;-75
2021/04/30 11:35:25;;;;;;;11.45;4.22;;;;;;;27.86;36.49;101033.91;143733;592;47020;-75
2021/04/30 11:37:54;;;;;;;12.63;4.40;;;;;;;27.68;37.18;101032.97;143738;576;46018;-77
2021/04/30 11:40:23;;;;;;;16.27;4.00;;;;;;;27.58;37.13;101030.31;143736;604;47010;-74